sensor_id;sensor_type;location;lat;lon;timestamp;P1;durP1;ratioP1;P2;durP2;ratioP2
34896;SDS011;43407;51.828;-2.298;2023-06-14T00:02:11;4.57;;;4.18;;
34896;SDS011;43407;51.828;-2.298;2023-06-14T00:04:36;4.65;;;4.25;;
34896;SDS011;43407;51.828;-2.298;2023-06-14T00:07:04;4.10;;;3.80;;
34896;SDS011;43407;51.828;-2.298;2023-06-14T00:09:29;6.60;;;4.40;;
34896;SDS011;43407;51.828;-2.298;2023-06-14T00:11:55;3.72;;;3.42;;
34896;SDS011;43407;51.828;-2.298;2023-06-14T00:14:20;6.57;;;4.15;;
34896;SDS011;43407;51.828;-2.298;2023-06-14T00:16:46;5.82;;;4.15;;
34896;SDS011;43407;51.828;-2.298;2023-06-14T00:19:12;4.50;;;4.10;;
34896;SDS011;43407;51.828;-2.298;2023-06-14T00:21:38;7.13;;;4.28;;
34896;SDS011;43407;51.828;-2.298;2023-06-14T00:24:03;4.82;;;4.40;;
34896;SDS011;43407;51.828;-2.298;2023-06-14T00:26:29;5.80;;;4.10;;
34896;SDS011;43407;51.828;-2.298;2023-06-14T00:28:55;5.25;;;4.00;;
34896;SDS011;43407;51.828;-2.298;2023-06-14T00:31:21;8.13;;;4.70;;
34896;SDS011;43407;51.828;-2.298;2023-06-14T00:33:47;7.53;;;4.57;;
34896;SDS011;43407;51.828;-2.298;2023-06-14T00:36:13;5.43;;;4.25;;
34896;SDS011;43407;51.828;-2.298;2023-06-14T00:38:39;6.85;;;4.88;;
34896;SDS011;43407;51.828;-2.298;2023-06-14T00:41:05;4.60;;;4.20;;
34896;SDS011;43407;51.828;-2.298;2023-06-14T00:43:30;7.90;;;4.60;;
34896;SDS011;43407;51.828;-2.298;2023-06-14T00:45:56;7.15;;;4.75;;
34896;SDS011;43407;51.828;-2.298;2023-06-14T00:48:21;5.07;;;4.45;;
34896;SDS011;43407;51.828;-2.298;2023-06-14T00:50:47;5.13;;;4.32;;
34896;SDS011;43407;51.828;-2.298;2023-06-14T00:53:15;4.75;;;4.22;;
34896;SDS011;43407;51.828;-2.298;2023-06-14T00:55:42;4.38;;;3.97;;
34896;SDS011;43407;51.828;-2.298;2023-06-14T00:58:08;4.60;;;4.07;;
34896;SDS011;43407;51.828;-2.298;2023-06-14T01:00:34;4.90;;;3.50;;
34896;SDS011;43407;51.828;-2.298;2023-06-14T01:03:00;4.40;;;3.83;;
34896;SDS011;43407;51.828;-2.298;2023-06-14T01:05:26;3.92;;;3.63;;
34896;SDS011;43407;51.828;-2.298;2023-06-14T01:13:33;4.57;;;3.97;;
34896;SDS011;43407;51.828;-2.298;2023-06-14T01:16:02;4.57;;;4.05;;
34896;SDS011;43407;51.828;-2.298;2023-06-14T01:18:28;5.82;;;4.25;;
34896;SDS011;43407;51.828;-2.298;2023-06-14T01:20:54;4.68;;;3.88;;
34896;SDS011;43407;51.828;-2.298;2023-06-14T01:23:21;4.72;;;4.00;;
34896;SDS011;43407;51.828;-2.298;2023-06-14T01:25:48;4.82;;;3.90;;
34896;SDS011;43407;51.828;-2.298;2023-06-14T01:28:18;4.38;;;3.97;;
34896;SDS011;43407;51.828;-2.298;2023-06-14T01:30:46;3.95;;;3.50;;
34896;SDS011;43407;51.828;-2.298;2023-06-14T01:33:13;4.03;;;3.67;;
34896;SDS011;43407;51.828;-2.298;2023-06-14T01:35:41;5.88;;;4.05;;
34896;SDS011;43407;51.828;-2.298;2023-06-14T01:38:09;5.15;;;4.25;;
34896;SDS011;43407;51.828;-2.298;2023-06-14T01:40:35;5.22;;;4.47;;
34896;SDS011;43407;51.828;-2.298;2023-06-14T01:43:02;4.82;;;3.88;;
34896;SDS011;43407;51.828;-2.298;2023-06-14T01:45:28;7.97;;;4.07;;
34896;SDS011;43407;51.828;-2.298;2023-06-14T01:47:54;4.93;;;3.70;;
34896;SDS011;43407;51.828;-2.298;2023-06-14T01:50:20;6.65;;;3.80;;
34896;SDS011;43407;51.828;-2.298;2023-06-14T01:52:45;4.25;;;3.03;;
34896;SDS011;43407;51.828;-2.298;2023-06-14T01:55:11;4.95;;;3.47;;
34896;SDS011;43407;51.828;-2.298;2023-06-14T01:57:36;4.10;;;3.43;;
34896;SDS011;43407;51.828;-2.298;2023-06-14T02:00:02;4.20;;;3.55;;
34896;SDS011;43407;51.828;-2.298;2023-06-14T02:02:37;3.97;;;3.58;;
34896;SDS011;43407;51.828;-2.298;2023-06-14T02:05:03;5.10;;;3.22;;
34896;SDS011;43407;51.828;-2.298;2023-06-14T02:07:29;3.88;;;3.25;;
34896;SDS011;43407;51.828;-2.298;2023-06-14T02:09:54;5.65;;;3.20;;
34896;SDS011;43407;51.828;-2.298;2023-06-14T02:12:20;3.83;;;3.10;;
34896;SDS011;43407;51.828;-2.298;2023-06-14T02:14:45;4.13;;;2.85;;
34896;SDS011;43407;51.828;-2.298;2023-06-14T02:17:10;4.43;;;3.33;;
34896;SDS011;43407;51.828;-2.298;2023-06-14T02:19:36;4.50;;;2.63;;
34896;SDS011;43407;51.828;-2.298;2023-06-14T02:22:02;3.47;;;2.88;;
34896;SDS011;43407;51.828;-2.298;2023-06-14T02:24:27;3.03;;;2.72;;
34896;SDS011;43407;51.828;-2.298;2023-06-14T02:26:53;4.90;;;2.97;;
34896;SDS011;43407;51.828;-2.298;2023-06-14T02:29:18;3.63;;;2.65;;
34896;SDS011;43407;51.828;-2.298;2023-06-14T02:31:44;4.18;;;2.80;;
34896;SDS011;43407;51.828;-2.298;2023-06-14T02:34:12;5.38;;;3.10;;
34896;SDS011;43407;51.828;-2.298;2023-06-14T02:36:37;4.13;;;2.50;;
34896;SDS011;43407;51.828;-2.298;2023-06-14T02:39:07;3.08;;;2.55;;
34896;SDS011;43407;51.828;-2.298;2023-06-14T02:41:34;4.97;;;2.65;;
34896;SDS011;43407;51.828;-2.298;2023-06-14T02:44:00;2.45;;;2.25;;
34896;SDS011;43407;51.828;-2.298;2023-06-14T02:46:25;2.30;;;2.10;;
34896;SDS011;43407;51.828;-2.298;2023-06-14T02:48:51;2.25;;;2.00;;
34896;SDS011;43407;51.828;-2.298;2023-06-14T02:51:16;2.90;;;2.40;;
34896;SDS011;43407;51.828;-2.298;2023-06-14T02:53:41;2.53;;;2.10;;
34896;SDS011;43407;51.828;-2.298;2023-06-14T02:56:07;4.00;;;2.35;;
34896;SDS011;43407;51.828;-2.298;2023-06-14T02:58:32;4.07;;;2.20;;
34896;SDS011;43407;51.828;-2.298;2023-06-14T03:00:58;2.67;;;2.40;;
34896;SDS011;43407;51.828;-2.298;2023-06-14T03:03:28;2.38;;;2.10;;
34896;SDS011;43407;51.828;-2.298;2023-06-14T03:05:54;4.72;;;2.10;;
34896;SDS011;43407;51.828;-2.298;2023-06-14T03:08:20;3.95;;;2.38;;
34896;SDS011;43407;51.828;-2.298;2023-06-14T03:10:46;3.50;;;2.47;;
34896;SDS011;43407;51.828;-2.298;2023-06-14T03:13:12;4.35;;;2.05;;
34896;SDS011;43407;51.828;-2.298;2023-06-14T03:15:38;4.32;;;2.15;;
34896;SDS011;43407;51.828;-2.298;2023-06-14T03:18:07;2.10;;;1.90;;
34896;SDS011;43407;51.828;-2.298;2023-06-14T03:20:33;5.32;;;2.53;;
34896;SDS011;43407;51.828;-2.298;2023-06-14T03:23:02;3.90;;;2.25;;
34896;SDS011;43407;51.828;-2.298;2023-06-14T03:25:28;2.90;;;2.38;;
34896;SDS011;43407;51.828;-2.298;2023-06-14T03:27:58;5.60;;;3.30;;
34896;SDS011;43407;51.828;-2.298;2023-06-14T03:30:23;5.25;;;3.33;;
34896;SDS011;43407;51.828;-2.298;2023-06-14T03:32:49;4.70;;;3.53;;
34896;SDS011;43407;51.828;-2.298;2023-06-14T03:35:17;6.07;;;3.20;;
34896;SDS011;43407;51.828;-2.298;2023-06-14T03:37:45;3.75;;;2.80;;
34896;SDS011;43407;51.828;-2.298;2023-06-14T03:40:12;7.30;;;3.00;;
34896;SDS011;43407;51.828;-2.298;2023-06-14T03:42:38;5.97;;;3.20;;
34896;SDS011;43407;51.828;-2.298;2023-06-14T03:45:04;4.13;;;2.42;;
34896;SDS011;43407;51.828;-2.298;2023-06-14T03:47:31;4.00;;;3.03;;
34896;SDS011;43407;51.828;-2.298;2023-06-14T03:49:57;6.15;;;3.33;;
34896;SDS011;43407;51.828;-2.298;2023-06-14T03:52:22;3.60;;;3.00;;
34896;SDS011;43407;51.828;-2.298;2023-06-14T03:54:48;3.97;;;3.17;;
34896;SDS011;43407;51.828;-2.298;2023-06-14T03:57:14;4.43;;;3.35;;
34896;SDS011;43407;51.828;-2.298;2023-06-14T03:59:40;3.63;;;3.00;;
34896;SDS011;43407;51.828;-2.298;2023-06-14T04:02:06;4.63;;;2.90;;
34896;SDS011;43407;51.828;-2.298;2023-06-14T04:04:32;3.47;;;2.75;;
34896;SDS011;43407;51.828;-2.298;2023-06-14T04:06:58;4.15;;;2.33;;
34896;SDS011;43407;51.828;-2.298;2023-06-14T04:09:25;4.35;;;2.60;;
34896;SDS011;43407;51.828;-2.298;2023-06-14T04:11:54;4.45;;;2.25;;
34896;SDS011;43407;51.828;-2.298;2023-06-14T04:14:20;2.58;;;2.25;;
34896;SDS011;43407;51.828;-2.298;2023-06-14T04:16:46;2.80;;;2.50;;
34896;SDS011;43407;51.828;-2.298;2023-06-14T04:19:12;3.45;;;2.33;;
34896;SDS011;43407;51.828;-2.298;2023-06-14T04:21:37;3.45;;;2.15;;
34896;SDS011;43407;51.828;-2.298;2023-06-14T04:24:03;2.78;;;2.08;;
34896;SDS011;43407;51.828;-2.298;2023-06-14T04:26:29;5.35;;;2.45;;
34896;SDS011;43407;51.828;-2.298;2023-06-14T04:28:55;3.20;;;2.00;;
34896;SDS011;43407;51.828;-2.298;2023-06-14T04:31:22;3.85;;;2.42;;
34896;SDS011;43407;51.828;-2.298;2023-06-14T04:33:50;3.85;;;2.03;;
34896;SDS011;43407;51.828;-2.298;2023-06-14T04:36:18;4.85;;;2.25;;
34896;SDS011;43407;51.828;-2.298;2023-06-14T04:38:43;2.55;;;2.20;;
34896;SDS011;43407;51.828;-2.298;2023-06-14T04:41:10;2.28;;;2.03;;
34896;SDS011;43407;51.828;-2.298;2023-06-14T04:43:36;4.40;;;2.47;;
34896;SDS011;43407;51.828;-2.298;2023-06-14T04:46:06;2.22;;;2.00;;
34896;SDS011;43407;51.828;-2.298;2023-06-14T04:48:39;3.13;;;2.15;;
34896;SDS011;43407;51.828;-2.298;2023-06-14T04:51:06;5.18;;;2.40;;
34896;SDS011;43407;51.828;-2.298;2023-06-14T04:53:32;2.30;;;2.10;;
34896;SDS011;43407;51.828;-2.298;2023-06-14T04:55:58;2.33;;;2.10;;
34896;SDS011;43407;51.828;-2.298;2023-06-14T04:58:23;3.72;;;2.40;;
34896;SDS011;43407;51.828;-2.298;2023-06-14T05:00:49;3.65;;;2.30;;
34896;SDS011;43407;51.828;-2.298;2023-06-14T05:03:14;2.63;;;2.42;;
34896;SDS011;43407;51.828;-2.298;2023-06-14T05:05:40;3.35;;;2.30;;
34896;SDS011;43407;51.828;-2.298;2023-06-14T05:08:06;3.88;;;2.00;;
34896;SDS011;43407;51.828;-2.298;2023-06-14T05:10:32;2.25;;;1.95;;
34896;SDS011;43407;51.828;-2.298;2023-06-14T05:12:59;4.40;;;2.30;;
34896;SDS011;43407;51.828;-2.298;2023-06-14T05:15:25;3.45;;;2.38;;
34896;SDS011;43407;51.828;-2.298;2023-06-14T05:17:52;3.63;;;2.10;;
34896;SDS011;43407;51.828;-2.298;2023-06-14T05:20:23;2.90;;;2.08;;
34896;SDS011;43407;51.828;-2.298;2023-06-14T05:22:55;2.33;;;2.13;;
34896;SDS011;43407;51.828;-2.298;2023-06-14T05:25:21;1.90;;;1.80;;
34896;SDS011;43407;51.828;-2.298;2023-06-14T05:27:47;2.47;;;2.10;;
34896;SDS011;43407;51.828;-2.298;2023-06-14T05:30:13;3.08;;;2.60;;
34896;SDS011;43407;51.828;-2.298;2023-06-14T05:32:39;4.78;;;3.13;;
34896;SDS011;43407;51.828;-2.298;2023-06-14T05:35:05;5.07;;;2.70;;
34896;SDS011;43407;51.828;-2.298;2023-06-14T05:37:31;3.85;;;2.90;;
34896;SDS011;43407;51.828;-2.298;2023-06-14T05:39:56;5.32;;;2.80;;
34896;SDS011;43407;51.828;-2.298;2023-06-14T05:42:22;4.78;;;2.90;;
34896;SDS011;43407;51.828;-2.298;2023-06-14T05:44:48;4.70;;;2.72;;
34896;SDS011;43407;51.828;-2.298;2023-06-14T05:47:13;4.93;;;2.50;;
34896;SDS011;43407;51.828;-2.298;2023-06-14T05:49:39;3.45;;;2.75;;
34896;SDS011;43407;51.828;-2.298;2023-06-14T05:52:04;3.70;;;2.58;;
34896;SDS011;43407;51.828;-2.298;2023-06-14T05:54:30;3.40;;;2.30;;
34896;SDS011;43407;51.828;-2.298;2023-06-14T05:56:56;5.18;;;2.75;;
34896;SDS011;43407;51.828;-2.298;2023-06-14T05:59:26;3.15;;;2.70;;
34896;SDS011;43407;51.828;-2.298;2023-06-14T06:01:52;4.88;;;3.08;;
34896;SDS011;43407;51.828;-2.298;2023-06-14T06:04:17;5.38;;;2.65;;
34896;SDS011;43407;51.828;-2.298;2023-06-14T06:06:43;3.95;;;2.50;;
34896;SDS011;43407;51.828;-2.298;2023-06-14T06:09:09;5.15;;;2.88;;
34896;SDS011;43407;51.828;-2.298;2023-06-14T06:11:34;5.30;;;2.70;;
34896;SDS011;43407;51.828;-2.298;2023-06-14T06:14:00;4.10;;;3.08;;
34896;SDS011;43407;51.828;-2.298;2023-06-14T06:16:25;4.93;;;2.80;;
34896;SDS011;43407;51.828;-2.298;2023-06-14T06:18:51;6.05;;;2.80;;
34896;SDS011;43407;51.828;-2.298;2023-06-14T06:21:17;4.90;;;2.83;;
34896;SDS011;43407;51.828;-2.298;2023-06-14T06:23:42;5.13;;;3.05;;
34896;SDS011;43407;51.828;-2.298;2023-06-14T06:26:08;4.55;;;2.70;;
34896;SDS011;43407;51.828;-2.298;2023-06-14T06:28:33;5.95;;;2.72;;
34896;SDS011;43407;51.828;-2.298;2023-06-14T06:30:59;3.05;;;2.83;;
34896;SDS011;43407;51.828;-2.298;2023-06-14T06:33:24;5.53;;;3.20;;
34896;SDS011;43407;51.828;-2.298;2023-06-14T06:35:50;6.22;;;3.50;;
34896;SDS011;43407;51.828;-2.298;2023-06-14T06:38:16;4.75;;;2.63;;
34896;SDS011;43407;51.828;-2.298;2023-06-14T06:40:43;8.15;;;3.90;;
34896;SDS011;43407;51.828;-2.298;2023-06-14T06:43:09;6.45;;;3.15;;
34896;SDS011;43407;51.828;-2.298;2023-06-14T06:45:34;5.28;;;3.35;;
34896;SDS011;43407;51.828;-2.298;2023-06-14T06:47:59;4.03;;;3.38;;
34896;SDS011;43407;51.828;-2.298;2023-06-14T06:50:25;7.63;;;4.03;;
34896;SDS011;43407;51.828;-2.298;2023-06-14T06:52:50;7.03;;;4.97;;
34896;SDS011;43407;51.828;-2.298;2023-06-14T06:55:16;9.95;;;5.60;;
34896;SDS011;43407;51.828;-2.298;2023-06-14T06:57:43;8.93;;;5.63;;
34896;SDS011;43407;51.828;-2.298;2023-06-14T07:00:09;7.45;;;5.32;;
34896;SDS011;43407;51.828;-2.298;2023-06-14T07:02:35;9.18;;;6.03;;
34896;SDS011;43407;51.828;-2.298;2023-06-14T07:05:01;7.40;;;4.95;;
34896;SDS011;43407;51.828;-2.298;2023-06-14T07:07:27;7.35;;;4.15;;
34896;SDS011;43407;51.828;-2.298;2023-06-14T07:09:52;8.20;;;4.25;;
34896;SDS011;43407;51.828;-2.298;2023-06-14T07:12:18;6.70;;;4.25;;
34896;SDS011;43407;51.828;-2.298;2023-06-14T07:14:43;7.43;;;3.80;;
34896;SDS011;43407;51.828;-2.298;2023-06-14T07:17:09;4.15;;;3.60;;
34896;SDS011;43407;51.828;-2.298;2023-06-14T07:19:34;5.07;;;3.78;;
34896;SDS011;43407;51.828;-2.298;2023-06-14T07:22:00;5.43;;;3.85;;
34896;SDS011;43407;51.828;-2.298;2023-06-14T07:24:26;4.40;;;3.58;;
34896;SDS011;43407;51.828;-2.298;2023-06-14T07:26:53;5.50;;;3.80;;
34896;SDS011;43407;51.828;-2.298;2023-06-14T07:29:19;5.07;;;3.25;;
34896;SDS011;43407;51.828;-2.298;2023-06-14T07:31:46;4.45;;;3.30;;
34896;SDS011;43407;51.828;-2.298;2023-06-14T07:34:11;5.22;;;3.63;;
34896;SDS011;43407;51.828;-2.298;2023-06-14T07:36:37;4.63;;;3.17;;
34896;SDS011;43407;51.828;-2.298;2023-06-14T07:39:03;8.30;;;3.58;;
34896;SDS011;43407;51.828;-2.298;2023-06-14T07:41:29;5.30;;;3.30;;
34896;SDS011;43407;51.828;-2.298;2023-06-14T07:43:54;8.43;;;3.30;;
34896;SDS011;43407;51.828;-2.298;2023-06-14T07:46:20;4.93;;;3.03;;
34896;SDS011;43407;51.828;-2.298;2023-06-14T07:48:45;7.68;;;2.78;;
34896;SDS011;43407;51.828;-2.298;2023-06-14T07:51:11;6.57;;;3.38;;
34896;SDS011;43407;51.828;-2.298;2023-06-14T07:53:36;5.43;;;3.80;;
34896;SDS011;43407;51.828;-2.298;2023-06-14T07:56:02;8.55;;;3.60;;
34896;SDS011;43407;51.828;-2.298;2023-06-14T07:58:28;7.18;;;3.60;;
34896;SDS011;43407;51.828;-2.298;2023-06-14T08:00:53;6.25;;;4.47;;
34896;SDS011;43407;51.828;-2.298;2023-06-14T08:03:19;8.02;;;3.67;;
34896;SDS011;43407;51.828;-2.298;2023-06-14T08:05:44;7.35;;;3.17;;
34896;SDS011;43407;51.828;-2.298;2023-06-14T08:08:10;6.95;;;3.65;;
34896;SDS011;43407;51.828;-2.298;2023-06-14T08:10:35;4.68;;;3.40;;
34896;SDS011;43407;51.828;-2.298;2023-06-14T08:13:01;7.57;;;3.58;;
34896;SDS011;43407;51.828;-2.298;2023-06-14T08:15:26;9.93;;;3.90;;
34896;SDS011;43407;51.828;-2.298;2023-06-14T08:17:52;9.27;;;3.65;;
34896;SDS011;43407;51.828;-2.298;2023-06-14T08:20:17;8.75;;;3.30;;
34896;SDS011;43407;51.828;-2.298;2023-06-14T08:22:43;4.10;;;2.80;;
34896;SDS011;43407;51.828;-2.298;2023-06-14T08:25:11;4.95;;;3.05;;
34896;SDS011;43407;51.828;-2.298;2023-06-14T08:27:37;5.78;;;3.05;;
34896;SDS011;43407;51.828;-2.298;2023-06-14T08:30:02;5.28;;;2.88;;
34896;SDS011;43407;51.828;-2.298;2023-06-14T08:32:28;8.75;;;3.25;;
34896;SDS011;43407;51.828;-2.298;2023-06-14T08:34:54;6.47;;;3.33;;
34896;SDS011;43407;51.828;-2.298;2023-06-14T08:37:19;3.20;;;2.67;;
34896;SDS011;43407;51.828;-2.298;2023-06-14T08:39:45;5.72;;;3.20;;
34896;SDS011;43407;51.828;-2.298;2023-06-14T08:42:11;7.57;;;2.83;;
34896;SDS011;43407;51.828;-2.298;2023-06-14T08:44:37;6.13;;;3.05;;
34896;SDS011;43407;51.828;-2.298;2023-06-14T08:47:03;4.65;;;3.00;;
34896;SDS011;43407;51.828;-2.298;2023-06-14T08:49:28;4.95;;;3.08;;
34896;SDS011;43407;51.828;-2.298;2023-06-14T08:51:58;7.05;;;3.10;;
34896;SDS011;43407;51.828;-2.298;2023-06-14T08:54:25;6.70;;;3.35;;
34896;SDS011;43407;51.828;-2.298;2023-06-14T08:56:55;4.55;;;3.25;;
34896;SDS011;43407;51.828;-2.298;2023-06-14T08:59:24;5.50;;;2.63;;
34896;SDS011;43407;51.828;-2.298;2023-06-14T09:01:51;4.40;;;3.60;;
34896;SDS011;43407;51.828;-2.298;2023-06-14T09:04:17;6.97;;;3.33;;
34896;SDS011;43407;51.828;-2.298;2023-06-14T09:06:44;6.93;;;3.13;;
34896;SDS011;43407;51.828;-2.298;2023-06-14T09:09:10;6.05;;;3.00;;
34896;SDS011;43407;51.828;-2.298;2023-06-14T09:11:37;4.80;;;3.25;;
34896;SDS011;43407;51.828;-2.298;2023-06-14T09:14:03;3.85;;;2.70;;
34896;SDS011;43407;51.828;-2.298;2023-06-14T09:16:28;4.97;;;3.05;;
34896;SDS011;43407;51.828;-2.298;2023-06-14T09:18:53;5.88;;;2.90;;
34896;SDS011;43407;51.828;-2.298;2023-06-14T09:21:19;4.28;;;2.67;;
34896;SDS011;43407;51.828;-2.298;2023-06-14T09:23:46;6.45;;;3.15;;
34896;SDS011;43407;51.828;-2.298;2023-06-14T09:28:42;4.70;;;2.88;;
34896;SDS011;43407;51.828;-2.298;2023-06-14T09:31:12;6.05;;;2.70;;
34896;SDS011;43407;51.828;-2.298;2023-06-14T09:33:38;4.68;;;2.67;;
34896;SDS011;43407;51.828;-2.298;2023-06-14T09:36:04;4.03;;;3.13;;
34896;SDS011;43407;51.828;-2.298;2023-06-14T09:38:35;6.68;;;3.05;;
34896;SDS011;43407;51.828;-2.298;2023-06-14T09:41:01;6.72;;;3.00;;
34896;SDS011;43407;51.828;-2.298;2023-06-14T09:43:28;6.38;;;2.83;;
34896;SDS011;43407;51.828;-2.298;2023-06-14T09:45:54;3.47;;;2.40;;
34896;SDS011;43407;51.828;-2.298;2023-06-14T09:48:20;5.82;;;2.55;;
34896;SDS011;43407;51.828;-2.298;2023-06-14T09:50:46;7.32;;;3.05;;
34896;SDS011;43407;51.828;-2.298;2023-06-14T09:53:13;5.63;;;3.10;;
34896;SDS011;43407;51.828;-2.298;2023-06-14T09:55:40;3.53;;;2.60;;
34896;SDS011;43407;51.828;-2.298;2023-06-14T09:58:07;5.72;;;2.90;;
34896;SDS011;43407;51.828;-2.298;2023-06-14T10:00:34;8.05;;;3.20;;
34896;SDS011;43407;51.828;-2.298;2023-06-14T10:03:00;4.05;;;2.90;;
34896;SDS011;43407;51.828;-2.298;2023-06-14T10:05:31;5.65;;;2.75;;
34896;SDS011;43407;51.828;-2.298;2023-06-14T10:08:04;7.13;;;3.00;;
34896;SDS011;43407;51.828;-2.298;2023-06-14T10:10:30;5.70;;;2.72;;
34896;SDS011;43407;51.828;-2.298;2023-06-14T10:12:56;5.20;;;2.55;;
34896;SDS011;43407;51.828;-2.298;2023-06-14T10:18:28;4.28;;;2.90;;
34896;SDS011;43407;51.828;-2.298;2023-06-14T10:21:05;5.43;;;2.55;;
34896;SDS011;43407;51.828;-2.298;2023-06-14T10:23:50;5.57;;;3.23;;
34896;SDS011;43407;51.828;-2.298;2023-06-14T10:26:20;4.55;;;3.22;;
34896;SDS011;43407;51.828;-2.298;2023-06-14T10:28:59;5.65;;;2.97;;
34896;SDS011;43407;51.828;-2.298;2023-06-14T10:34:09;5.47;;;3.20;;
34896;SDS011;43407;51.828;-2.298;2023-06-14T10:36:36;6.35;;;2.55;;
34896;SDS011;43407;51.828;-2.298;2023-06-14T10:39:10;9.32;;;2.95;;
34896;SDS011;43407;51.828;-2.298;2023-06-14T10:41:40;4.95;;;2.80;;
34896;SDS011;43407;51.828;-2.298;2023-06-14T10:46:37;5.57;;;3.10;;
34896;SDS011;43407;51.828;-2.298;2023-06-14T10:49:03;6.20;;;3.10;;
34896;SDS011;43407;51.828;-2.298;2023-06-14T10:51:41;2.38;;;2.00;;
34896;SDS011;43407;51.828;-2.298;2023-06-14T10:54:13;4.25;;;2.40;;
34896;SDS011;43407;51.828;-2.298;2023-06-14T10:56:45;4.78;;;2.85;;
34896;SDS011;43407;51.828;-2.298;2023-06-14T10:59:12;3.75;;;2.75;;
34896;SDS011;43407;51.828;-2.298;2023-06-14T11:01:40;3.85;;;2.83;;
34896;SDS011;43407;51.828;-2.298;2023-06-14T11:04:11;6.00;;;2.88;;
34896;SDS011;43407;51.828;-2.298;2023-06-14T11:06:55;4.28;;;3.10;;
34896;SDS011;43407;51.828;-2.298;2023-06-14T11:12:31;8.45;;;3.05;;
34896;SDS011;43407;51.828;-2.298;2023-06-14T11:14:57;4.80;;;2.90;;
34896;SDS011;43407;51.828;-2.298;2023-06-14T11:17:22;5.65;;;2.92;;
34896;SDS011;43407;51.828;-2.298;2023-06-14T11:19:48;3.92;;;2.85;;
34896;SDS011;43407;51.828;-2.298;2023-06-14T11:22:13;6.32;;;3.20;;
34896;SDS011;43407;51.828;-2.298;2023-06-14T11:24:40;9.77;;;3.15;;
34896;SDS011;43407;51.828;-2.298;2023-06-14T11:27:06;5.07;;;2.80;;
34896;SDS011;43407;51.828;-2.298;2023-06-14T11:29:31;3.28;;;2.63;;
34896;SDS011;43407;51.828;-2.298;2023-06-14T11:31:57;3.55;;;2.70;;
34896;SDS011;43407;51.828;-2.298;2023-06-14T11:34:22;4.20;;;2.58;;
34896;SDS011;43407;51.828;-2.298;2023-06-14T11:36:48;5.15;;;2.75;;
34896;SDS011;43407;51.828;-2.298;2023-06-14T11:39:13;4.47;;;2.83;;
34896;SDS011;43407;51.828;-2.298;2023-06-14T11:41:40;9.30;;;2.80;;
34896;SDS011;43407;51.828;-2.298;2023-06-14T11:44:07;4.20;;;2.67;;
34896;SDS011;43407;51.828;-2.298;2023-06-14T11:46:33;3.30;;;2.25;;
34896;SDS011;43407;51.828;-2.298;2023-06-14T11:48:59;8.23;;;2.92;;
34896;SDS011;43407;51.828;-2.298;2023-06-14T11:51:28;9.50;;;3.80;;
34896;SDS011;43407;51.828;-2.298;2023-06-14T11:53:54;5.28;;;3.28;;
34896;SDS011;43407;51.828;-2.298;2023-06-14T11:56:20;7.70;;;3.22;;
34896;SDS011;43407;51.828;-2.298;2023-06-14T11:58:46;3.92;;;3.10;;
34896;SDS011;43407;51.828;-2.298;2023-06-14T12:01:16;4.05;;;2.90;;
34896;SDS011;43407;51.828;-2.298;2023-06-14T12:03:47;9.05;;;2.65;;
34896;SDS011;43407;51.828;-2.298;2023-06-14T12:06:13;7.03;;;3.22;;
34896;SDS011;43407;51.828;-2.298;2023-06-14T12:08:40;4.38;;;3.00;;
34896;SDS011;43407;51.828;-2.298;2023-06-14T12:11:06;4.20;;;3.17;;
34896;SDS011;43407;51.828;-2.298;2023-06-14T12:13:33;3.50;;;2.80;;
34896;SDS011;43407;51.828;-2.298;2023-06-14T12:16:01;5.95;;;3.10;;
34896;SDS011;43407;51.828;-2.298;2023-06-14T12:18:34;3.95;;;3.10;;
34896;SDS011;43407;51.828;-2.298;2023-06-14T12:21:00;4.22;;;2.65;;
34896;SDS011;43407;51.828;-2.298;2023-06-14T12:23:44;4.45;;;3.63;;
34896;SDS011;43407;51.828;-2.298;2023-06-14T12:26:17;4.53;;;3.28;;
34896;SDS011;43407;51.828;-2.298;2023-06-14T12:28:44;6.88;;;3.38;;
34896;SDS011;43407;51.828;-2.298;2023-06-14T12:31:11;4.57;;;2.60;;
34896;SDS011;43407;51.828;-2.298;2023-06-14T12:33:37;6.28;;;3.25;;
34896;SDS011;43407;51.828;-2.298;2023-06-14T12:36:07;6.20;;;3.70;;
34896;SDS011;43407;51.828;-2.298;2023-06-14T12:38:33;4.30;;;2.78;;
34896;SDS011;43407;51.828;-2.298;2023-06-14T12:40:59;5.18;;;3.25;;
34896;SDS011;43407;51.828;-2.298;2023-06-14T12:43:25;4.53;;;3.45;;
34896;SDS011;43407;51.828;-2.298;2023-06-14T12:45:51;7.68;;;3.40;;
34896;SDS011;43407;51.828;-2.298;2023-06-14T12:48:16;6.47;;;3.97;;
34896;SDS011;43407;51.828;-2.298;2023-06-14T12:50:42;6.28;;;3.38;;
34896;SDS011;43407;51.828;-2.298;2023-06-14T12:53:08;5.07;;;2.80;;
34896;SDS011;43407;51.828;-2.298;2023-06-14T12:55:33;5.43;;;2.70;;
34896;SDS011;43407;51.828;-2.298;2023-06-14T12:57:59;2.90;;;2.65;;
34896;SDS011;43407;51.828;-2.298;2023-06-14T13:00:24;4.05;;;3.17;;
34896;SDS011;43407;51.828;-2.298;2023-06-14T13:02:55;6.07;;;3.40;;
34896;SDS011;43407;51.828;-2.298;2023-06-14T13:05:20;6.07;;;4.00;;
34896;SDS011;43407;51.828;-2.298;2023-06-14T13:07:46;5.72;;;3.40;;
34896;SDS011;43407;51.828;-2.298;2023-06-14T13:10:11;4.60;;;2.97;;
34896;SDS011;43407;51.828;-2.298;2023-06-14T13:12:37;4.85;;;3.20;;
34896;SDS011;43407;51.828;-2.298;2023-06-14T13:15:02;7.38;;;3.60;;
34896;SDS011;43407;51.828;-2.298;2023-06-14T13:17:28;5.70;;;3.38;;
34896;SDS011;43407;51.828;-2.298;2023-06-14T13:19:53;4.40;;;3.38;;
34896;SDS011;43407;51.828;-2.298;2023-06-14T13:22:19;4.03;;;3.35;;
34896;SDS011;43407;51.828;-2.298;2023-06-14T13:24:44;3.65;;;3.33;;
34896;SDS011;43407;51.828;-2.298;2023-06-14T13:27:10;5.22;;;3.60;;
34896;SDS011;43407;51.828;-2.298;2023-06-14T13:29:36;5.85;;;3.70;;
34896;SDS011;43407;51.828;-2.298;2023-06-14T13:32:02;5.68;;;3.33;;
34896;SDS011;43407;51.828;-2.298;2023-06-14T13:34:29;4.95;;;3.47;;
34896;SDS011;43407;51.828;-2.298;2023-06-14T13:36:55;6.32;;;3.55;;
34896;SDS011;43407;51.828;-2.298;2023-06-14T13:39:20;8.98;;;3.70;;
34896;SDS011;43407;51.828;-2.298;2023-06-14T13:41:46;3.95;;;3.00;;
34896;SDS011;43407;51.828;-2.298;2023-06-14T13:44:12;3.28;;;2.97;;
34896;SDS011;43407;51.828;-2.298;2023-06-14T13:46:39;4.07;;;3.10;;
34896;SDS011;43407;51.828;-2.298;2023-06-14T13:49:07;3.92;;;3.53;;
34896;SDS011;43407;51.828;-2.298;2023-06-14T13:51:33;6.53;;;3.15;;
34896;SDS011;43407;51.828;-2.298;2023-06-14T13:54:00;5.65;;;3.20;;
34896;SDS011;43407;51.828;-2.298;2023-06-14T13:56:26;7.40;;;3.70;;
34896;SDS011;43407;51.828;-2.298;2023-06-14T13:58:51;4.60;;;3.45;;
34896;SDS011;43407;51.828;-2.298;2023-06-14T14:01:17;4.85;;;3.53;;
34896;SDS011;43407;51.828;-2.298;2023-06-14T14:03:46;5.18;;;3.30;;
34896;SDS011;43407;51.828;-2.298;2023-06-14T14:06:12;7.07;;;3.50;;
34896;SDS011;43407;51.828;-2.298;2023-06-14T14:08:38;5.13;;;3.60;;
34896;SDS011;43407;51.828;-2.298;2023-06-14T14:11:04;4.68;;;3.38;;
34896;SDS011;43407;51.828;-2.298;2023-06-14T14:13:30;4.90;;;3.42;;
34896;SDS011;43407;51.828;-2.298;2023-06-14T14:15:56;5.93;;;3.75;;
34896;SDS011;43407;51.828;-2.298;2023-06-14T14:18:21;5.57;;;3.78;;
34896;SDS011;43407;51.828;-2.298;2023-06-14T14:20:47;5.95;;;3.47;;
34896;SDS011;43407;51.828;-2.298;2023-06-14T14:23:13;5.70;;;3.92;;
34896;SDS011;43407;51.828;-2.298;2023-06-14T14:25:39;4.32;;;3.53;;
34896;SDS011;43407;51.828;-2.298;2023-06-14T14:28:04;4.10;;;3.50;;
34896;SDS011;43407;51.828;-2.298;2023-06-14T14:30:29;3.60;;;3.30;;
34896;SDS011;43407;51.828;-2.298;2023-06-14T14:32:55;7.93;;;3.85;;
34896;SDS011;43407;51.828;-2.298;2023-06-14T14:35:21;7.30;;;3.83;;
34896;SDS011;43407;51.828;-2.298;2023-06-14T14:37:48;5.80;;;3.90;;
34896;SDS011;43407;51.828;-2.298;2023-06-14T14:40:14;4.18;;;3.78;;
34896;SDS011;43407;51.828;-2.298;2023-06-14T14:42:39;5.57;;;3.58;;
34896;SDS011;43407;51.828;-2.298;2023-06-14T14:45:05;10.20;;;4.18;;
34896;SDS011;43407;51.828;-2.298;2023-06-14T14:47:31;6.20;;;4.32;;
34896;SDS011;43407;51.828;-2.298;2023-06-14T14:49:56;5.20;;;3.83;;